createdAt,value
2019-01-16T00:00:10.613Z,12.70
2019-01-16T00:02:36.901Z,12.60
2019-01-16T00:05:03.127Z,12.60
2019-01-16T00:07:29.491Z,12.60
2019-01-16T00:09:57.331Z,12.60
2019-01-16T00:12:23.587Z,12.60
2019-01-16T00:14:51.696Z,12.60
2019-01-16T00:17:18.105Z,12.50
2019-01-16T00:19:44.298Z,12.60
2019-01-16T00:22:10.543Z,12.60
2019-01-16T00:24:36.787Z,12.60
2019-01-16T00:27:02.988Z,12.60
2019-01-16T00:29:29.246Z,12.60
2019-01-16T00:31:56.263Z,12.70
2019-01-16T00:34:22.495Z,12.60
2019-01-16T00:36:48.733Z,12.70
2019-01-16T00:39:14.961Z,12.70
2019-01-16T00:41:41.193Z,12.60
2019-01-16T00:44:08.238Z,12.70
2019-01-16T00:46:34.446Z,12.60
2019-01-16T00:49:00.670Z,12.70
2019-01-16T00:51:27.166Z,12.70
2019-01-16T00:53:53.560Z,12.70
2019-01-16T00:56:19.986Z,12.60
2019-01-16T00:58:46.252Z,12.60
2019-01-16T01:01:12.643Z,12.60
2019-01-16T01:03:38.878Z,12.60
2019-01-16T01:06:05.121Z,12.50
2019-01-16T01:08:31.335Z,12.60
2019-01-16T01:10:57.543Z,12.60
2019-01-16T01:13:24.277Z,12.60
2019-01-16T01:15:50.624Z,12.60
2019-01-16T01:18:16.847Z,12.70
2019-01-16T01:20:43.028Z,12.70
2019-01-16T01:23:09.328Z,12.70
2019-01-16T01:25:36.359Z,12.60
2019-01-16T01:28:02.791Z,12.60
2019-01-16T01:30:29.012Z,12.60
2019-01-16T01:32:55.246Z,12.60
2019-01-16T01:35:21.501Z,12.50
2019-01-16T01:37:47.679Z,12.50
2019-01-16T01:40:13.933Z,12.60
2019-01-16T01:42:40.173Z,12.60
2019-01-16T01:45:06.610Z,12.60
2019-01-16T01:47:32.819Z,12.60
2019-01-16T01:49:59.056Z,12.60
2019-01-16T01:52:26.099Z,12.60
2019-01-16T01:54:52.349Z,12.60
2019-01-16T01:57:19.744Z,12.60
2019-01-16T01:59:45.226Z,12.60
2019-01-16T02:02:11.624Z,12.60
2019-01-16T02:04:38.716Z,12.50
2019-01-16T02:07:05.150Z,12.60
2019-01-16T02:09:31.346Z,12.50
2019-01-16T02:11:57.559Z,12.60
2019-01-16T02:14:23.783Z,12.60
2019-01-16T02:16:50.008Z,12.60
2019-01-16T02:19:16.260Z,12.60
2019-01-16T02:21:42.479Z,12.60
2019-01-16T02:24:08.680Z,12.60
2019-01-16T02:26:34.923Z,12.60
2019-01-16T02:29:01.136Z,12.70
2019-01-16T02:31:27.395Z,12.70
2019-01-16T02:33:56.323Z,12.60
2019-01-16T02:36:22.513Z,12.60
2019-01-16T02:38:48.778Z,12.60
2019-01-16T02:41:14.952Z,12.60
2019-01-16T02:43:41.234Z,12.60
2019-01-16T02:46:07.610Z,12.60
2019-01-16T02:48:33.845Z,12.60
2019-01-16T02:51:00.097Z,12.60
2019-01-16T02:53:26.302Z,12.60
2019-01-16T02:55:52.521Z,12.60
2019-01-16T02:58:18.746Z,12.60
2019-01-16T03:00:45.013Z,12.60
2019-01-16T03:03:11.223Z,12.60
2019-01-16T03:05:37.433Z,12.60
2019-01-16T03:08:03.616Z,12.60
2019-01-16T03:10:30.609Z,12.60
2019-01-16T03:12:57.335Z,12.60
2019-01-16T03:15:23.575Z,12.60
2019-01-16T03:17:49.811Z,12.60
2019-01-16T03:20:16.020Z,12.60
2019-01-16T03:22:42.277Z,12.60
2019-01-16T03:25:08.507Z,12.70
2019-01-16T03:27:34.781Z,12.60
2019-01-16T03:30:01.158Z,12.60
2019-01-16T03:32:29.035Z,12.60
2019-01-16T03:34:56.912Z,12.60
2019-01-16T03:37:23.321Z,12.60
2019-01-16T03:39:49.547Z,12.50
2019-01-16T03:42:15.788Z,12.50
2019-01-16T03:44:41.988Z,12.50
2019-01-16T03:47:08.234Z,12.50
2019-01-16T03:49:36.113Z,12.50
2019-01-16T03:52:02.347Z,12.60
2019-01-16T03:54:28.556Z,12.60
2019-01-16T03:56:54.782Z,12.60
2019-01-16T03:59:21.019Z,12.60
2019-01-16T04:01:47.231Z,12.50
2019-01-16T04:04:13.480Z,12.50
2019-01-16T04:06:39.949Z,12.50
2019-01-16T04:09:06.335Z,12.50
2019-01-16T04:11:32.549Z,12.50
2019-01-16T04:13:59.043Z,12.60
2019-01-16T04:16:25.450Z,12.60
2019-01-16T04:18:51.659Z,12.60
2019-01-16T04:21:17.930Z,12.60
2019-01-16T04:23:44.316Z,12.60
2019-01-16T04:26:10.537Z,12.60
2019-01-16T04:28:36.773Z,12.60
2019-01-16T04:31:02.996Z,12.50
2019-01-16T04:33:29.811Z,12.50
2019-01-16T04:35:56.060Z,12.50
2019-01-16T04:38:22.297Z,12.60
2019-01-16T04:40:48.947Z,12.60
2019-01-16T04:43:15.125Z,12.60
2019-01-16T04:45:41.387Z,12.50
2019-01-16T04:48:08.039Z,12.50
2019-01-16T04:50:34.257Z,12.50
2019-01-16T04:53:00.469Z,12.50
2019-01-16T04:55:27.581Z,12.50
2019-01-16T04:57:53.967Z,12.60
2019-01-16T05:00:20.195Z,12.60
2019-01-16T05:02:46.674Z,12.60
2019-01-16T05:05:13.048Z,12.60
2019-01-16T05:07:39.367Z,12.60
2019-01-16T05:10:05.717Z,12.60
2019-01-16T05:12:31.962Z,12.60
2019-01-16T05:14:58.165Z,12.60
2019-01-16T05:17:24.454Z,12.60
2019-01-16T05:19:50.833Z,12.60
2019-01-16T05:22:17.059Z,12.60
2019-01-16T05:24:43.298Z,12.60
2019-01-16T05:27:09.719Z,12.50
2019-01-16T05:29:36.537Z,12.50
2019-01-16T05:32:02.816Z,12.50
2019-01-16T05:34:29.215Z,12.60
2019-01-16T05:36:55.476Z,12.50
2019-01-16T05:39:21.689Z,12.50
2019-01-16T05:41:49.563Z,12.50
2019-01-16T05:44:16.601Z,12.50
2019-01-16T05:46:42.837Z,12.50
2019-01-16T05:49:09.068Z,12.50
2019-01-16T05:51:35.288Z,12.50
2019-01-16T05:54:01.561Z,12.40
2019-01-16T05:56:28.207Z,12.50
2019-01-16T05:58:54.640Z,12.50
2019-01-16T06:01:21.015Z,12.50
2019-01-16T06:03:47.292Z,12.50
2019-01-16T06:06:13.667Z,12.50
2019-01-16T06:08:39.919Z,12.50
2019-01-16T06:11:06.342Z,12.50
2019-01-16T06:13:32.572Z,12.50
2019-01-16T06:15:58.790Z,12.50
2019-01-16T06:18:25.026Z,12.50
2019-01-16T06:20:51.268Z,12.50
2019-01-16T06:23:19.163Z,12.50
2019-01-16T06:25:45.578Z,12.50
2019-01-16T06:28:11.968Z,12.50
2019-01-16T06:30:38.203Z,12.40
2019-01-16T06:33:04.439Z,12.40
2019-01-16T06:35:30.660Z,12.40
2019-01-16T06:37:56.880Z,12.40
2019-01-16T06:40:23.131Z,12.40
2019-01-16T06:42:50.995Z,12.40
2019-01-16T06:45:17.216Z,12.40
2019-01-16T06:47:43.457Z,12.40
2019-01-16T06:50:16.436Z,12.40
2019-01-16T06:52:36.907Z,12.30
2019-01-16T06:55:03.153Z,12.40
2019-01-16T06:57:29.376Z,12.40
2019-01-16T06:59:55.603Z,12.40
2019-01-16T07:02:21.837Z,12.40
2019-01-16T07:04:49.695Z,12.40
2019-01-16T07:07:15.928Z,12.40
2019-01-16T07:09:42.164Z,12.40
2019-01-16T07:12:08.372Z,12.40
2019-01-16T07:14:34.613Z,12.40
2019-01-16T07:17:00.852Z,12.40
2019-01-16T07:19:28.723Z,12.40
2019-01-16T07:21:54.940Z,12.40
2019-01-16T07:24:22.821Z,12.40
2019-01-16T07:26:49.240Z,12.40
2019-01-16T07:29:15.475Z,12.40
2019-01-16T07:31:41.708Z,12.40
2019-01-16T07:34:07.939Z,12.40
2019-01-16T07:36:34.209Z,12.40
2019-01-16T07:39:00.581Z,12.50
2019-01-16T07:41:26.805Z,12.50
2019-01-16T07:43:53.073Z,12.50
2019-01-16T07:46:19.474Z,12.50
2019-01-16T07:48:45.725Z,12.50
2019-01-16T07:51:11.928Z,12.50
2019-01-16T07:53:38.149Z,12.50
2019-01-16T07:56:04.343Z,12.50
2019-01-16T07:58:30.607Z,12.50
2019-01-16T08:00:56.828Z,12.50
2019-01-16T08:03:23.117Z,12.50
2019-01-16T08:05:49.500Z,12.40
2019-01-16T08:08:15.727Z,12.40
2019-01-16T08:10:43.594Z,12.30
2019-01-16T08:13:09.816Z,12.30
2019-01-16T08:15:36.045Z,12.20
2019-01-16T08:18:02.297Z,12.20
2019-01-16T08:20:28.719Z,12.30
2019-01-16T08:22:54.923Z,12.30
2019-01-16T08:25:21.190Z,12.20
2019-01-16T08:27:47.389Z,12.20
2019-01-16T08:30:13.629Z,12.30
2019-01-16T08:32:39.840Z,12.30
2019-01-16T08:35:06.092Z,12.30
2019-01-16T08:37:32.361Z,12.20
2019-01-16T08:39:58.553Z,12.20
2019-01-16T08:42:24.760Z,12.30
2019-01-16T08:44:50.981Z,12.30
2019-01-16T08:47:17.235Z,12.30
2019-01-16T08:49:43.433Z,12.30
2019-01-16T08:52:09.655Z,12.30
2019-01-16T08:54:35.903Z,12.30
2019-01-16T08:57:02.115Z,12.30
2019-01-16T08:59:28.368Z,12.30
2019-01-16T09:01:54.544Z,12.30
2019-01-16T09:04:20.808Z,12.30
2019-01-16T09:06:47.030Z,12.30
2019-01-16T09:09:13.251Z,12.20
2019-01-16T09:11:39.488Z,12.20
2019-01-16T09:14:05.722Z,12.30
2019-01-16T09:16:31.947Z,12.20
2019-01-16T09:18:58.192Z,12.20
2019-01-16T09:21:26.040Z,12.20
2019-01-16T09:23:52.293Z,12.20
2019-01-16T09:26:18.521Z,12.10
2019-01-16T09:28:44.734Z,12.20
2019-01-16T09:31:10.963Z,12.10
2019-01-16T09:33:37.391Z,12.20
2019-01-16T09:36:03.637Z,12.20
2019-01-16T09:38:29.859Z,12.10
2019-01-16T09:40:56.088Z,12.20
2019-01-16T09:43:23.938Z,12.20
2019-01-16T09:45:50.178Z,12.10
2019-01-16T09:48:18.037Z,12.10
2019-01-16T09:50:47.914Z,12.10
2019-01-16T09:53:10.707Z,12.10
2019-01-16T09:55:36.941Z,12.10
2019-01-16T09:58:03.147Z,12.20
2019-01-16T10:00:29.375Z,12.20
2019-01-16T10:02:55.552Z,12.30
2019-01-16T10:05:22.645Z,12.20
2019-01-16T10:07:48.894Z,12.20
2019-01-16T10:10:15.121Z,12.20
2019-01-16T10:12:41.344Z,12.10
2019-01-16T10:15:07.567Z,12.10
2019-01-16T10:17:33.796Z,12.10
2019-01-16T10:20:00.021Z,12.10
2019-01-16T10:22:26.253Z,12.10
2019-01-16T10:24:52.486Z,12.10
2019-01-16T10:27:18.719Z,12.10
2019-01-16T10:29:44.925Z,12.20
2019-01-16T10:32:11.152Z,12.20
2019-01-16T10:34:37.376Z,12.20
2019-01-16T10:37:03.629Z,12.20
2019-01-16T10:39:29.846Z,12.20
2019-01-16T10:41:56.075Z,12.20
2019-01-16T10:44:22.310Z,12.20
2019-01-16T10:46:48.546Z,12.10
2019-01-16T10:49:14.754Z,12.10
2019-01-16T10:51:41.039Z,12.10
2019-01-16T10:54:07.665Z,12.10
2019-01-16T10:56:34.085Z,12.10
2019-01-16T10:59:01.934Z,12.10
2019-01-16T11:01:29.786Z,12.10
2019-01-16T11:03:56.019Z,12.10
2019-01-16T11:06:22.235Z,12.10
2019-01-16T11:08:48.483Z,12.10
2019-01-16T11:11:16.133Z,12.10
2019-01-16T11:13:41.145Z,12.10
2019-01-16T11:16:07.579Z,12.10
2019-01-16T11:18:35.468Z,12.10
2019-01-16T11:21:01.660Z,12.10
2019-01-16T11:23:28.442Z,12.10
2019-01-16T11:25:55.410Z,12.10
2019-01-16T11:28:21.779Z,12.10
2019-01-16T11:30:48.027Z,12.10
2019-01-16T11:33:14.286Z,12.10
2019-01-16T11:35:40.668Z,12.10
2019-01-16T11:38:06.902Z,12.10
2019-01-16T11:40:33.138Z,12.00
2019-01-16T11:43:01.043Z,12.00
2019-01-16T11:45:27.447Z,12.00
2019-01-16T11:47:53.911Z,12.00
2019-01-16T11:50:20.300Z,12.00
2019-01-16T11:52:46.512Z,12.00
2019-01-16T11:55:12.742Z,12.00
2019-01-16T11:57:39.172Z,11.90
2019-01-16T12:00:05.408Z,11.90
2019-01-16T12:02:38.245Z,11.90
2019-01-16T12:04:58.064Z,12.00
2019-01-16T12:07:24.298Z,12.00
2019-01-16T12:09:50.508Z,11.90
2019-01-16T12:12:16.749Z,11.90
2019-01-16T12:14:42.982Z,12.00
2019-01-16T12:17:09.217Z,12.00
2019-01-16T12:19:35.651Z,12.00
2019-01-16T12:22:01.863Z,12.10
2019-01-16T12:24:28.112Z,12.10
2019-01-16T12:26:54.580Z,12.10
2019-01-16T12:29:20.965Z,12.10
2019-01-16T12:31:47.179Z,12.10
2019-01-16T12:34:13.416Z,12.20
2019-01-16T12:36:39.640Z,12.10
2019-01-16T12:39:05.875Z,12.10
2019-01-16T12:41:32.107Z,12.00
2019-01-16T12:43:58.325Z,12.00
2019-01-16T12:46:26.195Z,12.00
2019-01-16T12:48:52.406Z,12.00
2019-01-16T12:51:18.689Z,12.00
2019-01-16T12:53:45.088Z,12.00
2019-01-16T12:56:11.326Z,12.00
2019-01-16T12:58:38.362Z,12.10
2019-01-16T13:01:04.595Z,12.00
2019-01-16T13:03:30.841Z,12.10
2019-01-16T13:05:57.041Z,12.00
2019-01-16T13:08:23.268Z,12.00
2019-01-16T13:10:49.551Z,12.00
2019-01-16T13:13:15.947Z,12.00
2019-01-16T13:15:42.376Z,12.00
2019-01-16T13:18:08.874Z,12.00
2019-01-16T13:20:35.243Z,12.00
2019-01-16T13:23:01.468Z,12.00
2019-01-16T13:25:27.688Z,12.00
2019-01-16T13:27:53.926Z,12.00
2019-01-16T13:30:21.613Z,12.10
2019-01-16T13:32:48.011Z,12.10
2019-01-16T13:35:14.250Z,12.00
2019-01-16T13:37:40.455Z,12.00
2019-01-16T13:40:06.687Z,12.10
2019-01-16T13:42:32.947Z,12.10
2019-01-16T13:44:59.144Z,12.10
2019-01-16T13:47:25.391Z,12.10
2019-01-16T13:49:51.608Z,12.00
2019-01-16T13:52:19.104Z,12.10
2019-01-16T13:54:44.272Z,12.20
2019-01-16T13:57:12.607Z,12.10
2019-01-16T13:59:38.986Z,12.20
2019-01-16T14:02:05.412Z,12.10
2019-01-16T14:04:31.622Z,12.20
2019-01-16T14:06:57.864Z,12.10
2019-01-16T14:09:24.101Z,12.10
2019-01-16T14:11:50.275Z,12.10
2019-01-16T14:14:16.583Z,12.10
2019-01-16T14:16:42.807Z,12.20
2019-01-16T14:19:09.009Z,12.10
2019-01-16T14:21:35.219Z,12.10
2019-01-16T14:24:01.483Z,12.10
2019-01-16T14:26:27.655Z,12.00
2019-01-16T14:28:53.852Z,12.00
2019-01-16T14:31:20.969Z,12.00
2019-01-16T14:33:47.184Z,12.00
2019-01-16T14:36:13.408Z,12.00
2019-01-16T14:38:39.647Z,12.00
2019-01-16T14:41:05.927Z,12.00
2019-01-16T14:43:32.974Z,12.10
2019-01-16T14:45:59.359Z,12.10
2019-01-16T14:48:25.575Z,12.10
2019-01-16T14:50:51.804Z,12.10
2019-01-16T14:53:18.092Z,12.10
2019-01-16T14:55:44.503Z,12.20
2019-01-16T14:58:10.692Z,12.10
2019-01-16T15:00:36.943Z,12.00
2019-01-16T15:03:03.120Z,12.10
2019-01-16T15:05:29.331Z,12.10
2019-01-16T15:07:56.294Z,12.10
2019-01-16T15:10:22.674Z,12.10
2019-01-16T15:12:48.881Z,12.10
2019-01-16T15:15:15.137Z,12.10
2019-01-16T15:17:41.395Z,12.20
2019-01-16T15:20:07.627Z,12.20
2019-01-16T15:22:34.019Z,12.10
2019-01-16T15:25:01.888Z,12.10
2019-01-16T15:27:28.129Z,12.10
2019-01-16T15:29:54.555Z,12.10
2019-01-16T15:32:20.743Z,12.10
2019-01-16T15:34:47.188Z,12.10
2019-01-16T15:37:13.426Z,12.10
2019-01-16T15:39:39.671Z,12.10
2019-01-16T15:42:05.891Z,12.10
2019-01-16T15:44:32.163Z,12.20
2019-01-16T15:46:58.580Z,12.10
2019-01-16T15:49:24.959Z,12.10
2019-01-16T15:51:51.199Z,12.10
2019-01-16T15:54:23.715Z,12.10
2019-01-16T15:56:43.853Z,12.10
2019-01-16T15:59:10.085Z,12.10
2019-01-16T16:01:36.305Z,12.10
2019-01-16T16:04:02.544Z,12.10
2019-01-16T16:06:28.794Z,12.10
2019-01-16T16:08:55.012Z,12.10
2019-01-16T16:11:21.281Z,12.10
2019-01-16T16:13:47.661Z,12.20
2019-01-16T16:16:14.233Z,12.20
2019-01-16T16:18:41.341Z,12.20
2019-01-16T16:21:07.583Z,12.20
2019-01-16T16:23:33.824Z,12.10
2019-01-16T16:26:00.019Z,12.10
2019-01-16T16:28:26.296Z,12.20
2019-01-16T16:30:52.689Z,12.20
2019-01-16T16:33:18.911Z,12.10
2019-01-16T16:35:45.197Z,12.20
2019-01-16T16:38:11.415Z,12.20
2019-01-16T16:40:37.812Z,12.30
2019-01-16T16:43:04.043Z,12.30
2019-01-16T16:45:30.261Z,12.30
2019-01-16T16:47:56.443Z,12.30
2019-01-16T16:50:23.103Z,12.30
2019-01-16T16:52:49.296Z,12.30
2019-01-16T16:55:16.456Z,12.30
2019-01-16T16:57:42.856Z,12.20
2019-01-16T17:00:09.068Z,12.30
2019-01-16T17:02:35.294Z,12.20
2019-01-16T17:05:01.559Z,12.20
2019-01-16T17:07:27.963Z,12.20
2019-01-16T17:09:54.183Z,12.30
2019-01-16T17:12:20.432Z,12.30
2019-01-16T17:14:47.392Z,12.20
2019-01-16T17:17:14.511Z,12.20
2019-01-16T17:19:40.732Z,12.20
2019-01-16T17:22:06.971Z,12.20
2019-01-16T17:24:33.222Z,12.20
2019-01-16T17:26:59.623Z,12.20
2019-01-16T17:29:25.931Z,12.20
2019-01-16T17:31:52.335Z,12.30
2019-01-16T17:34:18.734Z,12.30
2019-01-16T17:36:44.942Z,12.30
2019-01-16T17:39:11.183Z,12.30
2019-01-16T17:41:37.427Z,12.30
2019-01-16T17:44:03.644Z,12.30
2019-01-16T17:46:29.840Z,12.20
2019-01-16T17:48:56.134Z,12.20
2019-01-16T17:51:22.520Z,12.20
2019-01-16T17:53:48.795Z,12.20
2019-01-16T17:56:15.168Z,12.30
2019-01-16T17:58:41.425Z,12.30
2019-01-16T18:01:08.456Z,12.30
2019-01-16T18:03:34.681Z,12.30
2019-01-16T18:06:00.896Z,12.20
2019-01-16T18:08:27.137Z,12.20
2019-01-16T18:10:53.359Z,12.30
2019-01-16T18:13:19.605Z,12.30
2019-01-16T18:15:45.840Z,12.30
2019-01-16T18:18:12.054Z,12.20
2019-01-16T18:20:38.265Z,12.10
2019-01-16T18:23:04.510Z,12.10
2019-01-16T18:25:30.931Z,12.10
2019-01-16T18:27:57.167Z,12.10
2019-01-16T18:30:23.592Z,12.10
2019-01-16T18:32:49.865Z,12.10
2019-01-16T18:35:16.294Z,12.10
2019-01-16T18:37:42.539Z,12.10
2019-01-16T18:40:08.907Z,12.00
2019-01-16T18:42:35.172Z,12.00
2019-01-16T18:45:02.723Z,12.00
2019-01-16T18:47:27.801Z,12.00
2019-01-16T18:49:54.042Z,12.00
2019-01-16T18:52:20.255Z,12.10
2019-01-16T18:54:46.516Z,12.10
2019-01-16T18:57:12.930Z,12.10
2019-01-16T18:59:39.165Z,12.10
2019-01-16T19:02:07.030Z,12.10
2019-01-16T19:04:33.253Z,12.10
2019-01-16T19:06:59.468Z,12.10
2019-01-16T19:09:25.708Z,12.10
2019-01-16T19:11:51.928Z,12.00
2019-01-16T19:14:20.058Z,12.10
2019-01-16T19:16:46.455Z,12.00
2019-01-16T19:19:14.329Z,12.00
2019-01-16T19:21:40.555Z,12.00
2019-01-16T19:24:06.989Z,12.00
2019-01-16T19:26:33.220Z,12.00
2019-01-16T19:28:59.619Z,12.00
2019-01-16T19:31:25.802Z,12.00
2019-01-16T19:33:52.085Z,12.00
2019-01-16T19:36:18.295Z,12.00
2019-01-16T19:38:44.549Z,12.00
2019-01-16T19:41:10.758Z,12.00
2019-01-16T19:43:36.993Z,12.00
2019-01-16T19:46:03.219Z,12.10
2019-01-16T19:48:29.708Z,12.10
2019-01-16T19:50:56.126Z,12.10
2019-01-16T19:53:22.524Z,12.10
2019-01-16T19:55:48.752Z,12.10
2019-01-16T19:58:14.985Z,12.00
2019-01-16T20:00:41.216Z,12.00
2019-01-16T20:03:07.415Z,12.00
2019-01-16T20:05:33.661Z,12.00
2019-01-16T20:07:59.888Z,12.10
2019-01-16T20:10:27.754Z,12.10
2019-01-16T20:12:53.945Z,12.10
2019-01-16T20:15:20.117Z,12.10
2019-01-16T20:17:46.460Z,12.10
2019-01-16T20:20:13.495Z,12.00
2019-01-16T20:22:39.713Z,12.00
2019-01-16T20:25:05.935Z,12.00
2019-01-16T20:27:32.155Z,12.00
2019-01-16T20:29:58.446Z,12.00
2019-01-16T20:32:24.826Z,12.10
2019-01-16T20:34:51.030Z,12.10
2019-01-16T20:37:17.293Z,12.10
2019-01-16T20:39:43.517Z,12.00
2019-01-16T20:42:09.775Z,12.00
2019-01-16T20:44:36.188Z,12.00
2019-01-16T20:47:02.409Z,12.00
2019-01-16T20:49:28.624Z,12.00
2019-01-16T20:51:54.916Z,12.00
2019-01-16T20:54:21.307Z,11.90
2019-01-16T20:56:47.511Z,12.00
2019-01-16T20:59:13.795Z,11.90
2019-01-16T21:01:40.166Z,12.00
2019-01-16T21:04:06.434Z,12.00
2019-01-16T21:06:32.853Z,12.00
2019-01-16T21:08:59.107Z,12.00
2019-01-16T21:11:25.524Z,12.10
2019-01-16T21:13:51.741Z,12.10
2019-01-16T21:16:17.959Z,12.10
2019-01-16T21:18:45.831Z,12.10
2019-01-16T21:21:12.075Z,12.00
2019-01-16T21:23:39.129Z,12.00
2019-01-16T21:26:05.560Z,12.00
2019-01-16T21:28:32.584Z,12.10
2019-01-16T21:30:58.816Z,12.10
2019-01-16T21:33:25.043Z,12.00
2019-01-16T21:35:51.259Z,12.00
2019-01-16T21:38:17.747Z,12.00
2019-01-16T21:40:44.189Z,12.00
2019-01-16T21:43:10.366Z,12.00
2019-01-16T21:45:38.103Z,12.00
2019-01-16T21:48:04.828Z,12.00
2019-01-16T21:50:31.086Z,12.00
2019-01-16T21:52:57.321Z,12.00
2019-01-16T21:55:23.762Z,12.00
2019-01-16T21:57:49.990Z,12.00
2019-01-16T22:00:16.208Z,12.00
2019-01-16T22:02:42.429Z,12.00
2019-01-16T22:05:08.665Z,12.00
2019-01-16T22:07:34.884Z,12.00
2019-01-16T22:10:01.172Z,12.00
2019-01-16T22:12:27.555Z,11.90
2019-01-16T22:14:54.605Z,12.00
2019-01-16T22:17:22.467Z,12.00
2019-01-16T22:19:48.696Z,12.00
2019-01-16T22:22:14.940Z,12.00
2019-01-16T22:24:41.143Z,12.00
2019-01-16T22:27:07.378Z,12.00
2019-01-16T22:29:33.594Z,12.00
2019-01-16T22:31:59.819Z,12.00
2019-01-16T22:34:26.076Z,12.00
2019-01-16T22:36:52.286Z,12.00
2019-01-16T22:39:18.974Z,12.00
2019-01-16T22:41:45.375Z,12.00
2019-01-16T22:44:11.604Z,12.00
2019-01-16T22:46:39.451Z,12.00
2019-01-16T22:49:05.731Z,11.90
2019-01-16T22:51:32.104Z,11.90
2019-01-16T22:53:58.345Z,11.90
2019-01-16T22:56:24.559Z,11.90
2019-01-16T22:58:50.848Z,11.90
2019-01-16T23:01:17.256Z,11.80
2019-01-16T23:03:45.351Z,11.90
2019-01-16T23:06:11.759Z,11.90
2019-01-16T23:08:37.953Z,11.90
2019-01-16T23:11:04.188Z,11.90
2019-01-16T23:13:30.427Z,11.90
2019-01-16T23:15:56.659Z,11.90
2019-01-16T23:18:22.904Z,11.90
2019-01-16T23:20:49.123Z,11.90
2019-01-16T23:23:15.567Z,11.90
2019-01-16T23:25:41.754Z,11.90
2019-01-16T23:28:07.994Z,11.90
2019-01-16T23:30:34.211Z,11.80
2019-01-16T23:33:00.493Z,11.80
2019-01-16T23:35:26.935Z,11.90
2019-01-16T23:37:53.303Z,11.90
2019-01-16T23:40:19.557Z,11.90
2019-01-16T23:42:45.817Z,11.90
2019-01-16T23:45:12.209Z,11.80
2019-01-16T23:47:38.832Z,11.80
2019-01-16T23:50:05.081Z,11.80
2019-01-16T23:52:31.288Z,11.80
2019-01-16T23:54:57.560Z,11.80
2019-01-16T23:57:23.955Z,12.00
2019-01-16T23:59:50.192Z,12.00
